createdAt,value
2023-04-12T00:00:48.455Z,37.65
2023-04-12T00:01:48.469Z,37.67
2023-04-12T00:02:48.551Z,37.65
2023-04-12T00:03:48.631Z,37.66
2023-04-12T00:04:48.701Z,37.66
2023-04-12T00:05:48.516Z,37.65
2023-04-12T00:06:48.606Z,37.64
2023-04-12T00:07:48.522Z,37.63
2023-04-12T00:08:48.538Z,37.62
2023-04-12T00:09:48.544Z,37.63
2023-04-12T00:10:48.535Z,37.62
2023-04-12T00:11:48.558Z,37.61
2023-04-12T00:12:48.552Z,37.63
2023-04-12T00:13:48.596Z,37.61
2023-04-12T00:14:48.555Z,37.59
2023-04-12T00:15:48.622Z,37.59
2023-04-12T00:16:48.570Z,37.58
2023-04-12T00:17:48.585Z,37.59
2023-04-12T00:18:48.566Z,37.57
2023-04-12T00:19:48.650Z,37.56
2023-04-12T00:20:48.604Z,37.57
2023-04-12T00:21:48.594Z,37.57
2023-04-12T00:22:50.311Z,37.56
2023-04-12T00:23:48.588Z,37.55
2023-04-12T00:24:48.620Z,37.58
2023-04-12T00:25:48.646Z,37.57
2023-04-12T00:26:48.618Z,37.55
2023-04-12T00:27:48.636Z,37.55
2023-04-12T00:28:48.603Z,37.56
2023-04-12T00:29:48.607Z,37.55
2023-04-12T00:30:48.661Z,37.54
2023-04-12T00:31:48.755Z,37.52
2023-04-12T00:32:48.689Z,37.51
2023-04-12T00:33:48.630Z,37.52
2023-04-12T00:34:48.650Z,37.54
2023-04-12T00:35:48.690Z,37.52
2023-04-12T00:36:48.614Z,37.53
2023-04-12T00:37:48.639Z,37.50
2023-04-12T00:38:48.632Z,37.50
2023-04-12T00:39:48.606Z,37.50
2023-04-12T00:40:48.628Z,37.50
2023-04-12T00:41:48.615Z,37.47
2023-04-12T00:42:48.613Z,37.49
2023-04-12T00:43:48.599Z,37.50
2023-04-12T00:44:48.606Z,37.48
2023-04-12T00:45:48.581Z,37.48
2023-04-12T00:46:48.600Z,37.50
2023-04-12T00:47:48.624Z,37.50
2023-04-12T00:48:48.694Z,37.49
2023-04-12T00:49:48.577Z,37.48
2023-04-12T00:50:48.582Z,37.48
2023-04-12T00:51:48.602Z,37.45
2023-04-12T00:52:48.605Z,37.47
2023-04-12T00:53:48.604Z,37.44
2023-04-12T00:54:48.585Z,37.42
2023-04-12T00:55:48.581Z,37.46
2023-04-12T00:56:48.613Z,37.45
2023-04-12T00:57:48.568Z,37.44
2023-04-12T00:58:48.596Z,37.43
2023-04-12T00:59:48.580Z,37.42
2023-04-12T01:00:48.569Z,37.42
2023-04-12T01:01:48.646Z,37.41
2023-04-12T01:02:48.653Z,37.42
2023-04-12T01:03:48.742Z,37.41
2023-04-12T01:04:48.564Z,37.39
2023-04-12T01:05:48.568Z,37.40
2023-04-12T01:06:48.550Z,37.42
2023-04-12T01:07:48.555Z,37.36
2023-04-12T01:08:48.552Z,37.40
2023-04-12T01:09:48.571Z,37.40
2023-04-12T01:10:48.558Z,37.39
2023-04-12T01:11:48.567Z,37.36
2023-04-12T01:12:48.550Z,37.38
2023-04-12T01:13:48.559Z,37.36
2023-04-12T01:14:48.535Z,37.35
2023-04-12T01:15:48.554Z,37.38
2023-04-12T01:16:48.708Z,37.36
2023-04-12T01:17:48.593Z,37.37
2023-04-12T01:18:48.521Z,37.34
2023-04-12T01:19:48.509Z,37.36
2023-04-12T01:20:48.526Z,37.32
2023-04-12T01:21:48.515Z,37.34
2023-04-12T01:22:48.523Z,37.34
2023-04-12T01:23:48.502Z,37.33
2023-04-12T01:24:48.487Z,37.33
2023-04-12T01:25:48.593Z,37.34
2023-04-12T01:26:48.490Z,37.33
2023-04-12T01:27:48.466Z,37.32
2023-04-12T01:28:48.512Z,37.31
2023-04-12T01:29:48.505Z,37.32
2023-04-12T01:30:48.509Z,37.31
2023-04-12T01:31:48.531Z,37.30
2023-04-12T01:32:48.548Z,37.30
2023-04-12T01:33:48.478Z,37.28
2023-04-12T01:34:48.477Z,37.27
2023-04-12T01:35:48.513Z,37.28
2023-04-12T01:36:48.470Z,37.28
2023-04-12T01:37:48.436Z,37.30
2023-04-12T01:38:48.429Z,37.28
2023-04-12T01:39:48.442Z,37.29
2023-04-12T01:40:48.451Z,37.30
2023-04-12T01:41:48.429Z,37.29
2023-04-12T01:42:48.423Z,37.28
2023-04-12T01:43:48.385Z,37.26
2023-04-12T01:44:48.406Z,37.26
2023-04-12T01:45:48.472Z,37.27
2023-04-12T01:46:48.413Z,37.26
2023-04-12T01:47:48.420Z,37.27
2023-04-12T01:48:48.422Z,37.25
2023-04-12T01:49:48.399Z,37.26
2023-04-12T01:50:48.408Z,37.25
2023-04-12T01:51:48.385Z,37.25
2023-04-12T01:52:48.400Z,37.24
2023-04-12T01:53:48.393Z,37.25
2023-04-12T01:54:48.374Z,37.23
2023-04-12T01:55:48.402Z,37.22
2023-04-12T01:56:48.352Z,37.22
2023-04-12T01:57:48.361Z,37.23
2023-04-12T01:58:48.346Z,37.22
2023-04-12T01:59:48.350Z,37.19
2023-04-12T02:00:48.376Z,37.22
2023-04-12T02:01:48.349Z,37.21
2023-04-12T02:02:48.429Z,37.20
2023-04-12T02:03:48.455Z,37.20
2023-04-12T02:04:48.314Z,37.16
2023-04-12T02:05:48.344Z,37.17
2023-04-12T02:06:48.365Z,37.18
2023-04-12T02:07:48.293Z,37.19
2023-04-12T02:08:48.334Z,37.21
2023-04-12T02:09:48.321Z,37.17
2023-04-12T02:10:48.321Z,37.19
2023-04-12T02:11:48.318Z,37.19
2023-04-12T02:12:48.257Z,37.16
2023-04-12T02:13:48.306Z,37.16
2023-04-12T02:14:48.291Z,37.14
2023-04-12T02:15:48.297Z,37.17
2023-04-12T02:16:48.379Z,37.17
2023-04-12T02:17:48.313Z,37.15
2023-04-12T02:18:48.275Z,37.13
2023-04-12T02:19:48.290Z,37.13
2023-04-12T02:20:48.246Z,37.15
2023-04-12T02:21:48.259Z,37.15
2023-04-12T02:22:48.343Z,37.15
2023-04-12T02:23:48.265Z,37.14
2023-04-12T02:24:48.275Z,37.14
2023-04-12T02:25:48.241Z,37.13
2023-04-12T02:26:48.302Z,37.13
2023-04-12T02:27:48.241Z,37.13
2023-04-12T02:28:48.257Z,37.11
2023-04-12T02:29:48.255Z,37.12
2023-04-12T02:30:48.251Z,37.14
2023-04-12T02:31:48.272Z,37.09
2023-04-12T02:32:48.322Z,37.11
2023-04-12T02:33:48.222Z,37.11
2023-04-12T02:34:48.276Z,37.10
2023-04-12T02:35:48.263Z,37.09
2023-04-12T02:36:48.265Z,37.10
2023-04-12T02:37:48.246Z,37.09
2023-04-12T02:38:48.271Z,37.09
2023-04-12T02:39:48.233Z,37.09
2023-04-12T02:40:48.249Z,37.09
2023-04-12T02:41:48.263Z,37.09
2023-04-12T02:42:48.242Z,37.07
2023-04-12T02:43:48.308Z,37.06
2023-04-12T02:44:48.256Z,37.06
2023-04-12T02:45:48.292Z,37.09
2023-04-12T02:46:48.260Z,37.05
2023-04-12T02:47:48.311Z,37.07
2023-04-12T02:48:48.235Z,37.04
2023-04-12T02:49:48.244Z,37.02
2023-04-12T02:50:48.249Z,37.06
2023-04-12T02:51:48.246Z,37.01
2023-04-12T02:52:48.242Z,37.04
2023-04-12T02:53:48.215Z,37.05
2023-04-12T02:54:48.217Z,37.02
2023-04-12T02:55:48.219Z,37.03
2023-04-12T02:56:48.211Z,37.01
2023-04-12T02:57:48.217Z,37.04
2023-04-12T02:58:48.211Z,37.05
2023-04-12T02:59:48.214Z,37.02
2023-04-12T03:00:48.225Z,37.03
2023-04-12T03:01:48.292Z,37.02
2023-04-12T03:02:48.290Z,37.02
2023-04-12T03:03:48.316Z,37.02
2023-04-12T03:04:48.192Z,37.00
2023-04-12T03:05:48.196Z,37.01
2023-04-12T03:06:48.213Z,37.01
2023-04-12T03:07:48.236Z,36.99
2023-04-12T03:08:48.206Z,37.01
2023-04-12T03:09:48.213Z,36.99
2023-04-12T03:10:48.203Z,37.00
2023-04-12T03:11:48.241Z,36.97
2023-04-12T03:12:48.225Z,36.99
2023-04-12T03:13:48.209Z,36.98
2023-04-12T03:14:48.266Z,36.96
2023-04-12T03:15:48.317Z,36.97
2023-04-12T03:16:48.230Z,36.99
2023-04-12T03:17:48.284Z,36.96
2023-04-12T03:18:48.248Z,36.96
2023-04-12T03:19:48.211Z,36.95
2023-04-12T03:20:48.247Z,36.97
2023-04-12T03:21:48.249Z,36.95
2023-04-12T03:22:48.244Z,36.94
2023-04-12T03:23:48.264Z,36.93
2023-04-12T03:24:48.250Z,36.95
2023-04-12T03:25:48.254Z,36.94
2023-04-12T03:26:48.249Z,36.94
2023-04-12T03:27:48.227Z,36.91
2023-04-12T03:28:48.263Z,36.93
2023-04-12T03:29:48.253Z,36.94
2023-04-12T03:30:48.305Z,36.93
2023-04-12T03:31:48.270Z,36.91
2023-04-12T03:32:48.317Z,36.92
2023-04-12T03:33:48.249Z,36.91
2023-04-12T03:34:48.247Z,36.92
2023-04-12T03:35:48.299Z,36.90
2023-04-12T03:36:48.317Z,36.91
2023-04-12T03:37:48.281Z,36.91
2023-04-12T03:38:48.274Z,36.88
2023-04-12T03:39:48.544Z,36.89
2023-04-12T03:40:48.291Z,36.90
2023-04-12T03:41:48.302Z,36.89
2023-04-12T03:42:48.333Z,36.89
2023-04-12T03:43:48.303Z,36.91
2023-04-12T03:44:48.278Z,36.88
2023-04-12T03:45:48.320Z,36.90
2023-04-12T03:46:48.406Z,36.86
2023-04-12T03:47:48.365Z,36.87
2023-04-12T03:48:48.313Z,36.85
2023-04-12T03:49:58.781Z,36.86
2023-04-12T03:50:49.292Z,36.90
2023-04-12T03:51:48.327Z,36.88
2023-04-12T03:52:48.309Z,36.86
2023-04-12T03:53:48.274Z,36.86
2023-04-12T03:54:48.271Z,36.86
2023-04-12T03:55:48.307Z,36.85
2023-04-12T03:56:48.254Z,36.85
2023-04-12T03:57:48.254Z,36.86
2023-04-12T03:58:48.238Z,36.84
2023-04-12T03:59:48.237Z,36.85
2023-04-12T04:00:48.237Z,36.83
2023-04-12T04:01:48.254Z,36.83
2023-04-12T04:02:48.235Z,36.82
2023-04-12T04:03:48.376Z,36.83
2023-04-12T04:04:48.249Z,36.83
2023-04-12T04:05:48.177Z,36.82
2023-04-12T04:06:48.179Z,36.85
2023-04-12T04:07:48.199Z,36.82
2023-04-12T04:08:48.158Z,36.80
2023-04-12T04:09:48.174Z,36.83
2023-04-12T04:10:48.142Z,36.81
2023-04-12T04:11:48.165Z,36.82
2023-04-12T04:12:48.121Z,36.79
2023-04-12T04:13:48.115Z,36.78
2023-04-12T04:14:48.174Z,36.82
2023-04-12T04:15:48.108Z,36.79
2023-04-12T04:16:48.277Z,36.80
2023-04-12T04:17:48.101Z,36.78
2023-04-12T04:18:48.099Z,36.78
2023-04-12T04:19:48.099Z,36.80
2023-04-12T04:20:48.092Z,36.80
2023-04-12T04:21:48.092Z,36.80
2023-04-12T04:22:48.061Z,36.76
2023-04-12T04:23:48.117Z,36.75
2023-04-12T04:24:48.043Z,36.74
2023-04-12T04:25:48.080Z,36.77
2023-04-12T04:26:48.077Z,36.76
2023-04-12T04:27:48.028Z,36.76
2023-04-12T04:28:48.035Z,36.76
2023-04-12T04:29:48.040Z,36.74
2023-04-12T04:30:48.008Z,36.76
2023-04-12T04:31:48.038Z,36.74
2023-04-12T04:32:48.005Z,36.75
2023-04-12T04:33:48.004Z,36.75
2023-04-12T04:34:48.000Z,36.75
2023-04-12T04:35:48.062Z,36.73
2023-04-12T04:36:48.009Z,36.73
2023-04-12T04:37:48.027Z,36.73
2023-04-12T04:38:48.023Z,36.74
2023-04-12T04:39:48.050Z,36.74
2023-04-12T04:40:48.029Z,36.75
2023-04-12T04:41:48.027Z,36.71
2023-04-12T04:42:48.036Z,36.71
2023-04-12T04:43:48.099Z,36.69
2023-04-12T04:44:48.082Z,36.74
2023-04-12T04:45:48.086Z,36.71
2023-04-12T04:46:48.047Z,36.70
2023-04-12T04:47:48.128Z,36.70
2023-04-12T04:48:48.067Z,36.71
2023-04-12T04:49:48.089Z,36.72
2023-04-12T04:50:48.076Z,36.68
2023-04-12T04:51:48.085Z,36.71
2023-04-12T04:52:48.107Z,36.72
2023-04-12T04:53:48.116Z,36.73
2023-04-12T04:54:48.093Z,36.74
2023-04-12T04:55:48.121Z,36.75
2023-04-12T04:56:48.100Z,36.73
2023-04-12T04:57:48.119Z,36.75
2023-04-12T04:58:48.097Z,36.73
2023-04-12T04:59:48.146Z,36.74
2023-04-12T05:00:48.175Z,36.75
2023-04-12T05:01:48.229Z,36.77
2023-04-12T05:02:48.330Z,36.80
2023-04-12T05:03:48.283Z,36.77
2023-04-12T05:04:48.172Z,36.79
2023-04-12T05:05:48.150Z,36.78
2023-04-12T05:06:48.190Z,36.78
2023-04-12T05:07:48.166Z,36.79
2023-04-12T05:08:48.210Z,36.80
2023-04-12T05:09:48.165Z,36.84
2023-04-12T05:10:48.212Z,36.80
2023-04-12T05:11:48.218Z,36.80
2023-04-12T05:12:48.233Z,36.85
2023-04-12T05:13:48.187Z,36.84
2023-04-12T05:14:51.625Z,36.85
2023-04-12T05:15:48.202Z,36.85
2023-04-12T05:16:48.243Z,36.84
2023-04-12T05:17:48.336Z,36.87
2023-04-12T05:18:48.289Z,36.88
2023-04-12T05:19:48.171Z,36.87
2023-04-12T05:20:48.159Z,36.90
2023-04-12T05:21:48.174Z,36.90
2023-04-12T05:22:48.156Z,36.89
2023-04-12T05:23:48.169Z,36.89
2023-04-12T05:24:48.141Z,36.92
2023-04-12T05:25:48.296Z,36.91
2023-04-12T05:26:48.141Z,36.92
2023-04-12T05:27:49.275Z,36.96
2023-04-12T05:28:48.107Z,36.96
2023-04-12T05:29:48.141Z,36.97
2023-04-12T05:30:48.172Z,36.97
2023-04-12T05:31:48.115Z,36.99
2023-04-12T05:32:48.108Z,36.97
2023-04-12T05:33:48.096Z,37.01
2023-04-12T05:34:48.106Z,37.03
2023-04-12T05:35:48.118Z,37.03
2023-04-12T05:36:48.434Z,37.03
2023-04-12T05:37:48.046Z,37.04
2023-04-12T05:38:48.064Z,37.06
2023-04-12T05:39:48.054Z,37.06
2023-04-12T05:40:48.070Z,37.06
2023-04-12T05:41:48.026Z,37.09
2023-04-12T05:42:48.014Z,37.09
2023-04-12T05:43:48.021Z,37.11
2023-04-12T05:44:49.310Z,37.11
2023-04-12T05:45:48.072Z,37.11
2023-04-12T05:46:48.422Z,37.13
2023-04-12T05:47:48.109Z,37.13
2023-04-12T05:48:47.991Z,37.16
2023-04-12T05:49:47.994Z,37.17
2023-04-12T05:50:47.978Z,37.16
2023-04-12T05:51:48.425Z,37.18
2023-04-12T05:52:47.973Z,37.19
2023-04-12T05:53:47.956Z,37.19
2023-04-12T05:54:47.919Z,37.22
2023-04-12T05:55:47.932Z,37.21
2023-04-12T05:56:48.406Z,37.21
2023-04-12T05:57:47.911Z,37.24
2023-04-12T05:58:47.922Z,37.22
2023-04-12T05:59:47.928Z,37.23
2023-04-12T06:00:47.923Z,37.24
2023-04-12T06:01:47.943Z,37.26
2023-04-12T06:02:48.045Z,37.26
2023-04-12T06:03:48.090Z,37.23
2023-04-12T06:04:51.219Z,37.25
2023-04-12T06:05:47.862Z,37.30
2023-04-12T06:06:47.925Z,37.35
2023-04-12T06:07:47.901Z,37.35
2023-04-12T06:08:47.871Z,37.36
2023-04-12T06:09:47.838Z,37.38
2023-04-12T06:10:47.827Z,37.40
2023-04-12T06:11:47.852Z,37.42
2023-04-12T06:12:47.823Z,37.44
2023-04-12T06:13:47.850Z,37.47
2023-04-12T06:14:47.839Z,37.50
2023-04-12T06:15:47.844Z,37.50
2023-04-12T06:16:47.791Z,37.57
2023-04-12T06:17:47.797Z,37.54
2023-04-12T06:18:47.787Z,37.54
2023-04-12T06:19:47.805Z,37.58
2023-04-12T06:20:47.788Z,37.63
2023-04-12T06:21:47.917Z,37.60
2023-04-12T06:22:47.749Z,37.61
2023-04-12T06:23:47.742Z,37.65
2023-04-12T06:24:47.754Z,37.65
2023-04-12T06:25:47.749Z,37.72
2023-04-12T06:26:47.757Z,37.73
2023-04-12T06:27:47.723Z,37.72
2023-04-12T06:28:47.697Z,37.79
2023-04-12T06:29:47.697Z,37.78
2023-04-12T06:30:47.709Z,37.79
2023-04-12T06:31:47.711Z,37.83
2023-04-12T06:32:47.801Z,37.81
2023-04-12T06:33:47.665Z,37.87
2023-04-12T06:34:47.683Z,37.89
2023-04-12T06:35:47.700Z,37.91
2023-04-12T06:36:47.665Z,37.90
2023-04-12T06:37:47.623Z,37.92
2023-04-12T06:38:47.652Z,37.93
2023-04-12T06:39:47.621Z,37.93
2023-04-12T06:40:47.632Z,37.96
2023-04-12T06:41:47.630Z,37.95
2023-04-12T06:42:47.622Z,38.00
2023-04-12T06:43:47.576Z,38.02
2023-04-12T06:44:47.576Z,38.07
2023-04-12T06:45:47.586Z,38.14
2023-04-12T06:46:47.938Z,38.11
2023-04-12T06:47:47.641Z,38.10
2023-04-12T06:48:47.586Z,38.17
2023-04-12T06:49:47.583Z,38.16
2023-04-12T06:50:47.571Z,38.19
2023-04-12T06:51:47.914Z,38.19
2023-04-12T06:52:47.542Z,38.08
2023-04-12T06:53:47.572Z,38.03
2023-04-12T06:54:47.569Z,38.02
2023-04-12T06:55:47.502Z,38.14
2023-04-12T06:56:47.534Z,38.46
2023-04-12T06:57:47.518Z,38.28
2023-04-12T06:58:47.499Z,38.08
2023-04-12T06:59:47.503Z,38.27
2023-04-12T07:00:47.474Z,38.33
2023-04-12T07:01:47.535Z,38.14
2023-04-12T07:02:47.575Z,38.28
2023-04-12T07:03:47.493Z,38.39
2023-04-12T07:04:47.501Z,38.33
2023-04-12T07:05:47.465Z,38.60
2023-04-12T07:06:47.454Z,38.71
2023-04-12T07:07:47.461Z,38.85
2023-04-12T07:08:47.421Z,38.96
2023-04-12T07:09:47.440Z,39.16
2023-04-12T07:10:47.404Z,39.07
2023-04-12T07:11:47.390Z,39.07
2023-04-12T07:12:47.401Z,39.13
2023-04-12T07:13:47.398Z,39.36
2023-04-12T07:14:47.371Z,39.41
2023-04-12T07:15:47.382Z,39.60
2023-04-12T07:16:47.534Z,39.57
2023-04-12T07:17:47.538Z,39.64
2023-04-12T07:18:47.545Z,39.72
2023-04-12T07:19:47.610Z,39.68
2023-04-12T07:20:47.643Z,39.49
2023-04-12T07:21:47.701Z,39.55
2023-04-12T07:22:47.783Z,39.55
2023-04-12T07:23:47.850Z,39.61
2023-04-12T07:24:47.900Z,39.68
2023-04-12T07:25:47.939Z,39.79
2023-04-12T07:26:48.048Z,39.84
2023-04-12T07:27:49.355Z,39.84
2023-04-12T07:28:48.037Z,39.83
2023-04-12T07:29:48.271Z,39.76
2023-04-12T07:30:48.049Z,39.80
2023-04-12T07:31:48.022Z,39.82
2023-04-12T07:32:48.086Z,39.89
2023-04-12T07:33:48.109Z,40.00
2023-04-12T07:34:47.996Z,40.09
2023-04-12T07:35:48.064Z,40.05
2023-04-12T07:36:48.003Z,40.08
2023-04-12T07:37:47.978Z,40.27
2023-04-12T07:38:47.963Z,40.74
2023-04-12T07:39:48.086Z,41.05
2023-04-12T07:40:50.261Z,42.25
2023-04-12T07:41:47.959Z,42.93
2023-04-12T07:42:48.073Z,42.83
2023-04-12T07:43:47.951Z,42.76
2023-04-12T07:44:47.939Z,42.82
2023-04-12T07:45:47.995Z,44.13
2023-04-12T07:46:47.988Z,44.27
2023-04-12T07:47:48.046Z,43.82
2023-04-12T07:48:48.004Z,43.91
2023-04-12T07:49:48.062Z,44.04
2023-04-12T07:50:48.032Z,44.16
2023-04-12T07:51:48.018Z,44.43
2023-04-12T07:52:48.032Z,44.61
2023-04-12T07:53:48.010Z,44.49
2023-04-12T07:54:48.032Z,44.79
2023-04-12T07:55:48.035Z,44.80
2023-04-12T07:56:48.012Z,45.11
2023-04-12T07:57:48.020Z,44.94
2023-04-12T07:58:48.063Z,44.80
2023-04-12T07:59:48.011Z,45.01
2023-04-12T08:00:48.022Z,45.06
2023-04-12T08:01:48.086Z,45.23
2023-04-12T08:02:48.146Z,45.22
2023-04-12T08:03:48.224Z,45.92
2023-04-12T08:04:48.025Z,45.43
2023-04-12T08:05:48.061Z,45.63
2023-04-12T08:06:48.046Z,45.62
2023-04-12T08:07:48.069Z,45.75
2023-04-12T08:08:48.138Z,45.72
2023-04-12T08:09:48.124Z,45.72
2023-04-12T08:10:48.118Z,46.03
2023-04-12T08:11:48.144Z,45.83
2023-04-12T08:12:48.213Z,45.97
2023-04-12T08:13:48.220Z,46.01
2023-04-12T08:14:48.843Z,46.33
2023-04-12T08:15:48.442Z,46.30
2023-04-12T08:16:48.395Z,46.34
2023-04-12T08:17:48.491Z,46.58
2023-04-12T08:18:48.584Z,46.43
2023-04-12T08:19:48.621Z,46.52
2023-04-12T08:20:48.665Z,46.40
2023-04-12T08:21:48.701Z,46.54
2023-04-12T08:22:48.785Z,46.60
2023-04-12T08:23:48.843Z,46.91
2023-04-12T08:24:48.893Z,46.63
2023-04-12T08:25:48.912Z,46.75
2023-04-12T08:26:48.995Z,46.88
2023-04-12T08:27:49.055Z,46.89
2023-04-12T08:28:49.119Z,46.95
2023-04-12T08:29:49.139Z,47.28
2023-04-12T08:30:49.241Z,47.38
2023-04-12T08:31:49.273Z,47.41
2023-04-12T08:32:49.356Z,47.78
2023-04-12T08:33:49.338Z,47.67
2023-04-12T08:34:49.385Z,47.27
2023-04-12T08:35:49.507Z,47.32
2023-04-12T08:36:49.480Z,47.40
2023-04-12T08:37:49.974Z,47.07
2023-04-12T08:38:49.621Z,47.28
2023-04-12T08:39:49.619Z,47.08
2023-04-12T08:40:49.658Z,47.23
2023-04-12T08:41:49.668Z,47.39
2023-04-12T08:42:49.752Z,47.35
2023-04-12T08:43:49.784Z,47.38
2023-04-12T08:44:49.793Z,47.05
2023-04-12T08:45:49.866Z,46.07
2023-04-12T08:46:51.185Z,44.96
2023-04-12T08:47:50.012Z,44.39
2023-04-12T08:48:49.954Z,45.27
2023-04-12T08:49:49.955Z,44.85
2023-04-12T08:50:50.686Z,44.90
2023-04-12T08:51:49.980Z,45.18
2023-04-12T08:52:50.520Z,44.09
2023-04-12T08:53:49.985Z,43.89
2023-04-12T08:54:50.041Z,43.53
2023-04-12T08:55:50.058Z,43.79
2023-04-12T08:56:50.033Z,43.08
2023-04-12T08:57:50.058Z,43.48
2023-04-12T08:58:50.060Z,42.87
2023-04-12T08:59:50.061Z,42.77
2023-04-12T09:00:50.118Z,42.60
2023-04-12T09:01:50.235Z,42.44
2023-04-12T09:02:50.280Z,42.24
2023-04-12T09:03:50.283Z,41.09
2023-04-12T09:04:50.408Z,40.96
2023-04-12T09:05:50.125Z,41.07
2023-04-12T09:06:50.134Z,41.06
2023-04-12T09:07:50.157Z,40.42
2023-04-12T09:08:50.195Z,40.47
2023-04-12T09:09:50.211Z,39.97
2023-04-12T09:10:50.237Z,40.08
2023-04-12T09:11:50.242Z,39.84
2023-04-12T09:12:51.704Z,39.85
2023-04-12T09:13:50.410Z,39.71
2023-04-12T09:14:50.424Z,39.69
2023-04-12T09:15:50.446Z,39.72
2023-04-12T09:16:50.565Z,39.03
2023-04-12T09:17:50.556Z,39.14
2023-04-12T09:18:50.542Z,39.44
2023-04-12T09:19:50.572Z,38.67
2023-04-12T09:20:50.608Z,39.08
2023-04-12T09:21:50.616Z,38.98
2023-04-12T09:22:50.686Z,38.90
2023-04-12T09:23:50.684Z,38.61
2023-04-12T09:24:50.710Z,38.36
2023-04-12T09:25:50.720Z,39.22
2023-04-12T09:26:50.737Z,39.65
2023-04-12T09:27:50.788Z,39.88
2023-04-12T09:28:50.738Z,40.10
2023-04-12T09:29:50.730Z,40.34
2023-04-12T09:30:50.785Z,40.58
2023-04-12T09:31:51.624Z,40.81
2023-04-12T09:32:50.931Z,40.98
2023-04-12T09:33:50.957Z,41.19
2023-04-12T09:34:50.994Z,41.37
2023-04-12T09:35:51.167Z,41.37
2023-04-12T09:36:51.109Z,41.47
2023-04-12T09:37:51.145Z,41.53
2023-04-12T09:38:51.179Z,41.64
2023-04-12T09:39:51.231Z,41.64
2023-04-12T09:40:51.300Z,41.77
2023-04-12T09:41:51.289Z,41.64
2023-04-12T09:42:51.550Z,41.73
2023-04-12T09:43:51.389Z,41.59
2023-04-12T09:44:51.434Z,41.58
2023-04-12T09:45:51.531Z,41.49
2023-04-12T09:46:51.571Z,41.68
2023-04-12T09:47:52.072Z,41.89
2023-04-12T09:48:51.568Z,41.89
2023-04-12T09:49:51.601Z,42.07
2023-04-12T09:50:51.645Z,42.10
2023-04-12T09:51:51.621Z,42.28
2023-04-12T09:52:51.701Z,42.26
2023-04-12T09:53:51.705Z,42.38
2023-04-12T09:54:51.690Z,42.53
2023-04-12T09:55:51.697Z,42.61
2023-04-12T09:56:51.740Z,42.80
2023-04-12T09:57:51.799Z,42.98
2023-04-12T09:58:51.791Z,42.99
2023-04-12T09:59:51.797Z,43.04
2023-04-12T10:00:51.852Z,43.14
2023-04-12T10:01:51.917Z,43.12
2023-04-12T10:02:52.429Z,43.22
2023-04-12T10:03:52.152Z,43.31
2023-04-12T10:04:52.066Z,43.38
2023-04-12T10:05:51.959Z,43.38
2023-04-12T10:06:52.030Z,43.48
2023-04-12T10:07:52.000Z,43.51
2023-04-12T10:08:52.020Z,43.62
2023-04-12T10:09:52.044Z,43.70
2023-04-12T10:10:52.098Z,43.70
2023-04-12T10:11:52.091Z,43.76
2023-04-12T10:12:52.114Z,43.76
2023-04-12T10:13:52.152Z,43.89
2023-04-12T10:14:52.162Z,44.03
2023-04-12T10:15:52.195Z,44.06
2023-04-12T10:16:52.213Z,44.19
2023-04-12T10:17:52.229Z,44.27
2023-04-12T10:18:52.197Z,44.30
2023-04-12T10:19:52.227Z,44.24
2023-04-12T10:20:52.206Z,44.29
2023-04-12T10:21:52.224Z,44.10
2023-04-12T10:22:52.252Z,44.17
2023-04-12T10:23:52.237Z,44.15
2023-04-12T10:24:52.237Z,44.34
2023-04-12T10:25:55.217Z,44.41
2023-04-12T10:26:52.264Z,44.43
2023-04-12T10:27:52.265Z,44.45
2023-04-12T10:28:52.231Z,44.57
2023-04-12T10:29:52.230Z,44.53
2023-04-12T10:30:52.299Z,44.73
2023-04-12T10:31:52.298Z,44.76
2023-04-12T10:32:52.246Z,44.80
2023-04-12T10:33:52.240Z,44.91
2023-04-12T10:34:52.182Z,45.12
2023-04-12T10:35:52.204Z,45.35
2023-04-12T10:36:52.182Z,45.57
2023-04-12T10:37:52.218Z,45.34
2023-04-12T10:38:52.159Z,45.15
2023-04-12T10:39:52.197Z,44.80
2023-04-12T10:40:52.127Z,43.18
2023-04-12T10:41:52.186Z,43.63
2023-04-12T10:42:52.141Z,42.92
2023-04-12T10:43:52.187Z,43.22
2023-04-12T10:44:52.141Z,43.49
2023-04-12T10:45:52.120Z,43.49
2023-04-12T10:46:52.155Z,43.68
2023-04-12T10:47:52.186Z,43.61
2023-04-12T10:48:52.122Z,43.73
2023-04-12T10:49:52.090Z,43.68
2023-04-12T10:50:52.079Z,43.74
2023-04-12T10:51:52.069Z,43.59
2023-04-12T10:52:52.066Z,43.81
2023-04-12T10:53:52.118Z,44.08
2023-04-12T10:54:52.115Z,44.31
2023-04-12T10:55:52.057Z,44.26
2023-04-12T10:56:52.083Z,44.35
2023-04-12T10:57:52.013Z,44.23
2023-04-12T10:58:52.092Z,44.21
2023-04-12T10:59:52.004Z,44.32
2023-04-12T11:00:52.180Z,44.33
2023-04-12T11:01:52.094Z,44.31
2023-04-12T11:02:52.187Z,44.63
2023-04-12T11:03:52.192Z,44.56
2023-04-12T11:04:52.091Z,44.47
2023-04-12T11:05:51.955Z,44.24
2023-04-12T11:06:52.987Z,44.30
2023-04-12T11:07:51.936Z,44.17
2023-04-12T11:08:51.957Z,43.93
2023-04-12T11:09:51.961Z,43.80
2023-04-12T11:10:51.971Z,43.70
2023-04-12T11:11:51.926Z,43.65
2023-04-12T11:12:51.915Z,43.46
2023-04-12T11:13:51.927Z,43.42
2023-04-12T11:14:51.899Z,43.13
2023-04-12T11:15:51.924Z,43.49
2023-04-12T11:16:52.004Z,43.36
2023-04-12T11:17:51.988Z,43.33
2023-04-12T11:18:51.876Z,43.38
2023-04-12T11:19:51.849Z,43.24
2023-04-12T11:20:51.883Z,43.18
2023-04-12T11:21:51.914Z,43.05
2023-04-12T11:22:51.881Z,42.91
2023-04-12T11:23:51.833Z,42.59
2023-04-12T11:24:51.862Z,42.78
2023-04-12T11:25:51.838Z,42.91
2023-04-12T11:26:51.823Z,43.01
2023-04-12T11:27:51.908Z,42.99
2023-04-12T11:28:52.069Z,42.65
2023-04-12T11:29:51.779Z,41.96
2023-04-12T11:30:51.822Z,41.83
2023-04-12T11:31:51.849Z,41.44
2023-04-12T11:32:51.758Z,41.43
2023-04-12T11:33:51.782Z,40.21
2023-04-12T11:34:51.749Z,40.20
2023-04-12T11:35:51.726Z,39.83
2023-04-12T11:36:51.743Z,39.57
2023-04-12T11:37:51.769Z,39.69
2023-04-12T11:38:51.734Z,39.59
2023-04-12T11:39:51.723Z,39.16
2023-04-12T11:40:51.699Z,39.32
2023-04-12T11:41:51.723Z,38.96
2023-04-12T11:42:51.689Z,38.83
2023-04-12T11:43:51.713Z,38.67
2023-04-12T11:44:58.407Z,38.27
2023-04-12T11:45:52.696Z,38.30
2023-04-12T11:46:51.663Z,38.12
2023-04-12T11:47:51.708Z,38.02
2023-04-12T11:48:51.665Z,37.83
2023-04-12T11:49:51.654Z,37.97
2023-04-12T11:50:59.965Z,38.00
2023-04-12T11:51:52.632Z,37.61
2023-04-12T11:52:51.628Z,37.33
2023-04-12T11:53:51.613Z,37.74
2023-04-12T11:54:51.629Z,37.58
2023-04-12T11:55:51.615Z,37.08
2023-04-12T11:56:51.579Z,37.06
2023-04-12T11:57:51.574Z,37.05
2023-04-12T11:58:51.624Z,36.92
2023-04-12T11:59:51.669Z,36.70
2023-04-12T12:00:51.706Z,36.70
2023-04-12T12:01:51.781Z,36.64
2023-04-12T12:03:06.694Z,36.54
2023-04-12T12:03:52.957Z,36.47
2023-04-12T12:04:52.302Z,36.47
2023-04-12T12:05:52.271Z,36.47
2023-04-12T12:06:52.264Z,36.45
2023-04-12T12:07:51.783Z,36.31
2023-04-12T12:08:51.772Z,36.25
2023-04-12T12:09:51.782Z,36.10
2023-04-12T12:11:51.764Z,36.11
2023-04-12T12:12:51.734Z,36.20
2023-04-12T12:13:51.744Z,36.17
2023-04-12T12:14:51.715Z,36.09
2023-04-12T12:15:51.750Z,36.14
2023-04-12T12:16:51.718Z,36.05
2023-04-12T12:17:51.743Z,35.99
2023-04-12T12:18:52.952Z,36.01
2023-04-12T12:19:51.766Z,36.03
2023-04-12T12:20:51.807Z,35.97
2023-04-12T12:21:51.838Z,35.82
2023-04-12T12:22:51.844Z,35.82
2023-04-12T12:23:51.832Z,35.82
2023-04-12T12:24:51.836Z,35.76
2023-04-12T12:25:57.764Z,35.67
2023-04-12T12:26:52.861Z,35.70
2023-04-12T12:27:51.921Z,35.84
2023-04-12T12:28:51.832Z,35.78
2023-04-12T12:29:51.870Z,35.71
2023-04-12T12:30:51.828Z,35.74
2023-04-12T12:31:51.983Z,35.67
2023-04-12T12:32:51.821Z,35.65
2023-04-12T12:33:52.664Z,35.67
2023-04-12T12:34:52.104Z,35.56
2023-04-12T12:35:51.839Z,35.63
2023-04-12T12:36:51.812Z,35.59
2023-04-12T12:37:51.780Z,35.36
2023-04-12T12:38:51.755Z,35.25
2023-04-12T12:39:51.771Z,35.25
2023-04-12T12:40:51.780Z,35.20
2023-04-12T12:41:51.760Z,35.17
2023-04-12T12:42:51.768Z,35.12
2023-04-12T12:43:51.740Z,34.94
2023-04-12T12:44:51.730Z,34.81
2023-04-12T12:45:51.714Z,34.67
2023-04-12T12:46:56.852Z,34.69
2023-04-12T12:47:52.807Z,34.76
2023-04-12T12:48:52.585Z,34.81
2023-04-12T12:49:51.724Z,34.75
2023-04-12T12:50:51.669Z,34.81
2023-04-12T12:51:51.658Z,34.84
2023-04-12T12:52:51.675Z,35.00
2023-04-12T12:53:51.667Z,34.97